Time;durP1;ratioP1;P1;durP2;ratioP2;P2;SDS_P1;SDS_P2;PMS_P1;PMS_P2;Temp;Humidity;BMP_temperature;BMP_pressure;BME280_temperature;BME280_humidity;BME280_pressure;Samples;Min_cycle;Max_cycle;Signal;HPM_P1;HPM_P2
2023/12/05 00:00:06;;;;;;;8.35;4.75;;;;;;;24.52;32.75;99782.00;4362296;32;34271;-62
2023/12/05 00:02:39;;;;;;;7.05;4.20;;;;;;;24.50;32.88;99786.88;4362223;32;33808;-62
2023/12/05 00:05:07;;;;;;;7.47;4.55;;;;;;;24.50;32.92;99792.34;4361570;32;34774;-62
2023/12/05 00:07:34;;;;;;;8.57;4.75;;;;;;;24.49;33.03;99787.97;4361954;32;33833;-62
2023/12/05 00:10:02;;;;;;;9.00;4.12;;;;;;;24.48;32.94;99788.16;4362208;32;32891;-61
2023/12/05 00:12:30;;;;;;;6.28;3.92;;;;;;;24.46;33.02;99791.12;4362097;32;34030;-62
2023/12/05 00:14:57;;;;;;;8.35;3.67;;;;;;;24.46;33.02;99785.69;4362154;32;34940;-61
2023/12/05 00:17:25;;;;;;;9.25;4.30;;;;;;;24.45;33.07;99780.47;4362082;32;34796;-61
2023/12/05 00:19:52;;;;;;;10.35;4.10;;;;;;;24.44;33.19;99785.09;4362167;32;33623;-61
2023/12/05 00:22:20;;;;;;;7.25;4.07;;;;;;;24.42;33.20;99789.94;4362005;32;34801;-61
2023/12/05 00:24:47;;;;;;;6.75;4.28;;;;;;;24.41;33.16;99791.84;4362110;32;33858;-61
2023/12/05 00:27:15;;;;;;;6.75;4.03;;;;;;;24.41;33.40;99782.81;4361964;32;34686;-61
2023/12/05 00:29:43;;;;;;;6.50;3.87;;;;;;;24.40;33.40;99783.91;4362181;32;33735;-61
2023/12/05 00:32:10;;;;;;;6.40;3.90;;;;;;;24.39;33.37;99782.25;4362143;32;34176;-61
2023/12/05 00:34:38;;;;;;;6.93;4.18;;;;;;;24.38;33.39;99784.12;4362054;32;34782;-61
2023/12/05 00:37:05;;;;;;;8.85;4.28;;;;;;;24.37;33.40;99781.63;4361928;32;34645;-61
2023/12/05 00:39:33;;;;;;;6.57;4.20;;;;;;;24.35;33.45;99776.38;4361991;32;34297;-60
2023/12/05 00:42:01;;;;;;;7.82;3.90;;;;;;;24.35;33.46;99783.75;4361970;32;33683;-61
2023/12/05 00:44:28;;;;;;;5.15;3.25;;;;;;;24.34;33.49;99776.59;4361911;32;35056;-60
2023/12/05 00:46:56;;;;;;;6.50;3.70;;;;;;;24.33;33.62;99773.03;4362292;32;33974;-61
2023/12/05 00:49:24;;;;;;;7.18;3.87;;;;;;;24.31;33.70;99780.63;4361616;32;34076;-62
2023/12/05 00:51:51;;;;;;;6.18;3.85;;;;;;;24.32;33.74;99787.75;4361894;32;34074;-61
2023/12/05 00:54:19;;;;;;;5.78;3.70;;;;;;;24.32;33.79;99781.47;4361918;32;34695;-62
2023/12/05 00:56:46;;;;;;;8.13;4.25;;;;;;;24.31;33.71;99788.00;4361857;32;34557;-61
2023/12/05 00:59:14;;;;;;;8.20;4.00;;;;;;;24.30;33.75;99789.06;4361742;32;34299;-61
2023/12/05 01:01:41;;;;;;;5.72;3.92;;;;;;;24.27;33.83;99782.16;4361913;32;33993;-62
2023/12/05 01:04:09;;;;;;;6.40;3.60;;;;;;;24.27;33.78;99778.59;4359179;32;33942;-60
2023/12/05 01:06:37;;;;;;;8.35;4.10;;;;;;;24.26;33.79;99780.50;4354725;32;33612;-62
2023/12/05 01:09:10;;;;;;;5.55;3.17;;;;;;;24.26;33.84;99782.41;4361637;32;33611;-61
2023/12/05 01:11:38;;;;;;;6.00;3.65;;;;;;;24.24;33.79;99777.16;4361642;32;33890;-61
2023/12/05 01:14:05;;;;;;;8.90;3.70;;;;;;;24.25;33.80;99767.09;4361551;32;34911;-61
2023/12/05 01:16:33;;;;;;;7.18;3.92;;;;;;;24.24;33.77;99781.78;4361779;32;34798;-61
2023/12/05 01:19:00;;;;;;;9.40;3.70;;;;;;;24.22;33.78;99778.47;4361607;32;33930;-60
2023/12/05 01:21:28;;;;;;;7.47;3.72;;;;;;;24.21;33.86;99776.81;4361442;32;34790;-62
2023/12/05 01:23:56;;;;;;;9.43;4.05;;;;;;;24.21;33.79;99766.75;4361864;32;34091;-61
2023/12/05 01:26:24;;;;;;;7.78;3.72;;;;;;;24.21;33.80;99755.00;4361554;32;34530;-62
2023/12/05 01:28:51;;;;;;;6.43;3.53;;;;;;;24.19;33.98;99736.97;4361570;32;33597;-61
2023/12/05 01:31:19;;;;;;;8.73;4.35;;;;;;;24.18;33.94;99727.13;4361399;32;34914;-60
2023/12/05 01:33:47;;;;;;;8.80;3.75;;;;;;;24.17;34.02;99724.66;4361481;32;33905;-61
2023/12/05 01:36:14;;;;;;;5.70;3.62;;;;;;;24.16;34.04;99710.19;4361326;32;34648;-61
2023/12/05 01:38:43;;;;;;;7.90;4.25;;;;;;;24.15;34.02;99697.63;4361570;32;33084;-61
2023/12/05 01:41:10;;;;;;;7.10;3.92;;;;;;;24.14;34.06;99698.66;4361317;32;34049;-61
2023/12/05 01:43:38;;;;;;;6.75;3.80;;;;;;;24.13;34.02;99688.84;4361181;32;33843;-61
2023/12/05 01:46:05;;;;;;;6.22;4.05;;;;;;;24.13;34.08;99677.09;4361298;32;34624;-61
2023/12/05 01:48:33;;;;;;;5.53;3.50;;;;;;;24.12;34.01;99680.91;4335127;32;33404;-60
2023/12/05 01:51:01;;;;;;;5.90;3.78;;;;;;;24.11;34.04;99692.88;4335665;32;34069;-61
2023/12/05 01:53:29;;;;;;;7.85;3.80;;;;;;;24.09;34.01;99698.53;4347925;32;34025;-60
2023/12/05 01:55:56;;;;;;;7.18;3.40;;;;;;;24.09;34.06;99698.53;4335656;32;33898;-61
2023/12/05 01:58:42;;;;;;;7.18;3.58;;;;;;;24.07;34.07;99697.97;4347376;32;33450;-61
2023/12/05 02:01:11;;;;;;;6.80;3.50;;;;;;;24.07;34.15;99686.22;4351193;32;34635;-60
2023/12/05 02:03:39;;;;;;;8.43;3.70;;;;;;;24.07;34.18;99688.97;4363198;32;34026;-61
2023/12/05 02:06:07;;;;;;;7.00;3.42;;;;;;;24.06;34.24;99692.72;4362942;32;34923;-62
2023/12/05 02:08:35;;;;;;;7.00;3.58;;;;;;;24.04;34.32;99678.50;4349443;32;33753;-60
2023/12/05 02:11:03;;;;;;;8.20;3.60;;;;;;;24.03;34.33;99682.31;4337314;32;33737;-61
2023/12/05 02:13:31;;;;;;;8.23;3.60;;;;;;;24.03;34.30;99672.22;4362913;32;34105;-61
2023/12/05 02:16:03;;;;;;;6.28;3.55;;;;;;;24.02;34.30;99670.56;4363012;32;34040;-60
2023/12/05 02:18:33;;;;;;;5.57;3.60;;;;;;;24.02;34.44;99667.84;4349619;32;33348;-61
2023/12/05 02:21:06;;;;;;;5.75;3.45;;;;;;;24.00;34.45;99664.50;4349476;32;34009;-60
2023/12/05 02:24:01;;;;;;;7.45;3.28;;;;;;;24.01;34.37;99662.62;4349229;32;34147;-61
2023/12/05 02:26:40;;;;;;;6.37;3.60;;;;;;;24.02;34.41;99661.56;4328846;32;33876;-61
2023/12/05 02:29:08;;;;;;;5.70;3.58;;;;;;;24.00;34.43;99650.87;4362915;32;33587;-61
2023/12/05 02:31:36;;;;;;;5.37;3.20;;;;;;;23.98;34.41;99642.13;4362792;32;33983;-60
2023/12/05 02:34:03;;;;;;;5.15;3.10;;;;;;;23.97;34.37;99640.47;4362626;32;34993;-60
2023/12/05 02:36:37;;;;;;;4.90;3.50;;;;;;;23.96;34.46;99640.69;4349492;32;33632;-60
2023/12/05 02:39:18;;;;;;;6.95;3.70;;;;;;;23.94;34.50;99640.94;4349513;32;33095;-61
2023/12/05 02:41:47;;;;;;;6.60;3.45;;;;;;;23.95;34.56;99628.97;4349401;32;34020;-61
2023/12/05 02:44:15;;;;;;;5.55;3.50;;;;;;;23.94;34.51;99635.47;4349231;32;33911;-60
2023/12/05 02:46:43;;;;;;;10.43;3.50;;;;;;;23.93;34.52;99642.00;4362590;32;33911;-61
2023/12/05 02:49:11;;;;;;;7.62;3.58;;;;;;;23.93;34.52;99647.44;4349329;32;33671;-61
2023/12/05 02:51:40;;;;;;;5.22;2.97;;;;;;;23.92;34.50;99649.34;4349344;32;33963;-60
2023/12/05 02:54:07;;;;;;;8.05;3.55;;;;;;;23.91;34.47;99638.66;4349422;32;33600;-60
2023/12/05 02:56:36;;;;;;;8.95;3.33;;;;;;;23.91;34.53;99642.22;4362539;32;34068;-60
2023/12/05 02:59:03;;;;;;;5.62;3.12;;;;;;;23.90;34.50;99640.56;4349058;32;33628;-60
2023/12/05 03:01:36;;;;;;;7.35;3.20;;;;;;;23.90;34.51;99634.28;4362564;32;34950;-61
2023/12/05 03:04:04;;;;;;;6.03;3.30;;;;;;;23.89;34.65;99628.00;4349728;32;34092;-61
2023/12/05 03:06:32;;;;;;;7.22;3.50;;;;;;;23.89;34.61;99625.28;4362448;32;34066;-61
2023/12/05 03:09:03;;;;;;;5.85;3.22;;;;;;;23.88;34.59;99620.91;4362360;32;33277;-61
2023/12/05 03:11:31;;;;;;;6.37;3.30;;;;;;;23.88;34.59;99628.25;4362471;32;34493;-60
2023/12/05 03:13:59;;;;;;;8.05;3.58;;;;;;;23.88;34.54;99625.53;4362369;32;34798;-60
2023/12/05 03:16:26;;;;;;;5.62;3.30;;;;;;;23.86;34.55;99622.19;4362555;32;34132;-61
2023/12/05 03:18:54;;;;;;;8.27;3.80;;;;;;;23.86;34.65;99619.47;4362448;32;33504;-60
2023/12/05 03:21:23;;;;;;;5.43;3.10;;;;;;;23.84;34.62;99610.69;4362250;32;33968;-61
2023/12/05 03:23:50;;;;;;;5.53;3.53;;;;;;;23.84;34.65;99616.97;4362493;32;33869;-61
2023/12/05 03:26:22;;;;;;;5.43;2.70;;;;;;;23.84;34.65;99611.53;4362453;32;33755;-60
2023/12/05 03:28:49;;;;;;;10.73;4.43;;;;;;;23.83;34.65;99611.78;4362269;32;33603;-61
2023/12/05 03:31:17;;;;;;;6.18;3.00;;;;;;;23.82;34.69;99604.63;4362490;32;33840;-62
2023/12/05 03:33:45;;;;;;;7.07;3.40;;;;;;;23.83;34.71;99609.06;4362370;32;34068;-61
2023/12/05 03:36:13;;;;;;;5.70;3.95;;;;;;;23.81;34.66;99600.25;4362273;32;34735;-61
2023/12/05 03:38:40;;;;;;;6.28;3.10;;;;;;;23.80;34.63;99602.16;4362329;32;34288;-61
2023/12/05 03:41:08;;;;;;;7.30;3.65;;;;;;;23.80;34.74;99585.00;4362445;32;33557;-60
2023/12/05 03:43:36;;;;;;;8.23;3.20;;;;;;;23.79;34.71;99586.06;4362247;32;34048;-60
2023/12/05 03:46:03;;;;;;;5.82;2.80;;;;;;;23.79;34.80;99583.34;4362210;32;34772;-60
2023/12/05 03:48:31;;;;;;;6.40;3.28;;;;;;;23.77;34.81;99580.81;4362394;32;33755;-60
2023/12/05 03:50:59;;;;;;;4.18;2.87;;;;;;;23.77;34.80;99594.44;4362093;32;34860;-60
2023/12/05 03:53:26;;;;;;;5.95;3.08;;;;;;;23.77;34.78;99590.88;4362385;32;34184;-60
2023/12/05 03:55:54;;;;;;;4.95;3.22;;;;;;;23.75;34.81;99596.59;4362324;32;34106;-60
2023/12/05 03:58:21;;;;;;;6.22;2.95;;;;;;;23.75;34.79;99579.41;4361996;32;33148;-60
2023/12/05 04:00:49;;;;;;;6.62;2.97;;;;;;;23.75;34.79;99577.50;4362270;32;33882;-60
2023/12/05 04:03:18;;;;;;;6.03;2.90;;;;;;;23.74;34.79;99580.47;4362071;32;34027;-60
2023/12/05 04:05:46;;;;;;;5.55;2.92;;;;;;;23.74;34.78;99575.03;4362215;32;33630;-61
2023/12/05 04:08:14;;;;;;;5.32;3.35;;;;;;;23.74;34.77;99575.84;4362126;32;34220;-61
2023/12/05 04:10:42;;;;;;;5.20;2.97;;;;;;;23.73;34.81;99570.62;4362443;32;33610;-61
2023/12/05 04:13:09;;;;;;;5.47;3.03;;;;;;;23.73;34.75;99567.91;4348475;32;33578;-60
2023/12/05 04:15:36;;;;;;;5.10;2.85;;;;;;;23.72;34.79;99568.97;4362090;32;34807;-61
2023/12/05 04:18:04;;;;;;;5.10;2.83;;;;;;;23.71;34.88;99570.88;4348735;32;33577;-60
2023/12/05 04:20:33;;;;;;;6.57;3.03;;;;;;;23.70;34.94;99568.38;4362165;32;33723;-60
2023/12/05 04:23:00;;;;;;;6.75;3.70;;;;;;;23.70;34.86;99565.66;4361468;32;34556;-60
2023/12/05 04:25:28;;;;;;;5.25;3.17;;;;;;;23.70;34.87;99573.84;4361850;32;33641;-60
2023/12/05 04:27:55;;;;;;;5.32;3.05;;;;;;;23.68;34.85;99566.69;4348584;32;33509;-60
2023/12/05 04:30:23;;;;;;;9.68;3.45;;;;;;;23.68;34.89;99577.59;4362107;32;34969;-60
2023/12/05 04:32:51;;;;;;;8.60;2.97;;;;;;;23.69;34.89;99573.00;4362035;32;34001;-61
2023/12/05 04:35:18;;;;;;;7.57;3.15;;;;;;;23.67;34.92;99572.41;4362240;32;34276;-61
2023/12/05 04:37:46;;;;;;;4.78;2.87;;;;;;;23.67;34.87;99573.22;4362295;32;33717;-61
2023/12/05 04:40:14;;;;;;;5.68;3.28;;;;;;;23.67;34.87;99580.56;4362066;32;34641;-61
2023/12/05 04:42:41;;;;;;;6.50;3.12;;;;;;;23.65;34.90;99574.53;4362269;32;33991;-61
2023/12/05 04:45:08;;;;;;;3.95;2.60;;;;;;;23.65;34.96;99578.09;4361938;32;34682;-60
2023/12/05 04:47:36;;;;;;;7.82;2.80;;;;;;;23.63;34.90;99569.28;4361763;32;33609;-60
2023/12/05 04:50:05;;;;;;;5.53;3.00;;;;;;;23.63;34.96;99569.28;4362035;32;34752;-60
2023/12/05 04:52:33;;;;;;;5.07;3.03;;;;;;;23.62;34.93;99573.06;4361942;32;34023;-61
2023/12/05 04:55:01;;;;;;;5.22;2.90;;;;;;;23.63;34.90;99563.00;4361807;32;34657;-61
2023/12/05 04:57:28;;;;;;;5.43;2.97;;;;;;;23.62;34.91;99569.50;4361850;32;33525;-60
2023/12/05 04:59:56;;;;;;;5.72;3.10;;;;;;;23.62;34.93;99564.06;4361842;32;34020;-61
2023/12/05 05:02:24;;;;;;;6.35;2.67;;;;;;;23.60;34.95;99575.19;4361678;32;34793;-61
2023/12/05 05:04:51;;;;;;;10.00;2.80;;;;;;;23.59;35.01;99570.78;4362048;32;34622;-61
2023/12/05 05:07:18;;;;;;;4.22;2.60;;;;;;;23.58;35.04;99577.31;4362012;32;33561;-60
2023/12/05 05:09:46;;;;;;;5.12;3.08;;;;;;;23.58;35.03;99571.88;4361425;32;34946;-60
2023/12/05 05:12:14;;;;;;;4.80;3.00;;;;;;;23.58;34.97;99569.16;4361647;32;34007;-62
2023/12/05 05:14:41;;;;;;;7.95;2.95;;;;;;;23.58;34.94;99576.47;4361734;32;33687;-61
2023/12/05 05:17:09;;;;;;;6.32;2.85;;;;;;;23.57;35.11;99580.28;4348031;32;34333;-61
2023/12/05 05:19:37;;;;;;;5.47;2.65;;;;;;;23.56;35.09;99570.44;4361613;32;34723;-61
2023/12/05 05:22:04;;;;;;;5.53;3.28;;;;;;;23.55;34.98;99572.34;4361723;32;34046;-60
2023/12/05 05:24:32;;;;;;;5.85;2.75;;;;;;;23.56;34.96;99579.44;4361252;32;34191;-61
2023/12/05 05:27:00;;;;;;;9.57;2.72;;;;;;;23.55;35.07;99576.94;4361517;32;33793;-60
2023/12/05 05:29:28;;;;;;;5.00;2.80;;;;;;;23.54;35.07;99575.28;4361759;32;34654;-60
2023/12/05 05:31:56;;;;;;;6.37;3.05;;;;;;;23.54;35.07;99575.28;4361367;32;34012;-61
2023/12/05 05:34:24;;;;;;;4.30;2.90;;;;;;;23.52;35.09;99564.63;4360326;32;34640;-63
2023/12/05 05:36:52;;;;;;;4.85;2.72;;;;;;;23.54;35.07;99572.56;4361462;32;33521;-60
2023/12/05 05:39:20;;;;;;;6.55;3.17;;;;;;;23.53;35.07;99576.34;4361192;32;34577;-61
2023/12/05 05:41:48;;;;;;;5.07;3.15;;;;;;;23.53;35.07;99573.63;4361412;32;33595;-61
2023/12/05 05:44:15;;;;;;;5.90;2.78;;;;;;;23.52;35.09;99572.81;4361301;32;34519;-61
2023/12/05 05:46:43;;;;;;;5.20;2.90;;;;;;;23.51;35.06;99576.59;4361279;32;34296;-61
2023/12/05 05:49:10;;;;;;;4.35;2.37;;;;;;;23.50;35.04;99582.25;4361158;32;33894;-61
2023/12/05 05:51:38;;;;;;;5.50;3.03;;;;;;;23.50;35.04;99580.38;4361185;32;34783;-60
2023/12/05 05:54:06;;;;;;;5.82;3.00;;;;;;;23.49;35.01;99581.44;4361238;32;33970;-61
2023/12/05 05:56:39;;;;;;;6.30;3.00;;;;;;;23.49;35.06;99570.53;4361560;32;33543;-61
2023/12/05 05:59:07;;;;;;;6.20;2.67;;;;;;;23.50;35.15;99574.94;4360985;32;34150;-61
2023/12/05 06:01:34;;;;;;;5.22;2.95;;;;;;;23.49;35.13;99578.72;4347626;32;34757;-61
2023/12/05 06:04:02;;;;;;;7.25;2.90;;;;;;;23.48;35.15;99570.78;4361070;32;34606;-60
2023/12/05 06:06:31;;;;;;;4.87;2.72;;;;;;;23.48;35.13;99579.78;4360931;32;34364;-61
2023/12/05 06:08:59;;;;;;;10.43;3.50;;;;;;;23.47;35.11;99578.12;4360924;32;34062;-61
2023/12/05 06:11:27;;;;;;;5.03;2.83;;;;;;;23.46;35.14;99573.75;4361032;32;33605;-61
2023/12/05 06:13:54;;;;;;;5.60;2.75;;;;;;;23.46;35.25;99575.63;4360679;32;34885;-61
2023/12/05 06:16:22;;;;;;;5.75;2.80;;;;;;;23.44;35.20;99578.56;4361000;32;33639;-60
2023/12/05 06:18:49;;;;;;;8.55;3.15;;;;;;;23.44;35.17;99575.84;4361010;32;34168;-61
2023/12/05 06:21:17;;;;;;;8.82;3.03;;;;;;;23.43;35.15;99568.75;4360924;32;34239;-61
2023/12/05 06:23:45;;;;;;;3.90;2.22;;;;;;;23.43;35.24;99580.47;4360834;32;34394;-60
2023/12/05 06:26:12;;;;;;;5.57;2.58;;;;;;;23.42;35.31;99580.72;4360783;32;33379;-60
2023/12/05 06:28:40;;;;;;;6.90;2.53;;;;;;;23.41;35.24;99585.34;4360531;32;33764;-61
2023/12/05 06:31:08;;;;;;;4.90;3.05;;;;;;;23.41;35.25;99581.78;4360450;32;34151;-61
2023/12/05 06:33:36;;;;;;;7.57;3.83;;;;;;;23.41;35.24;99589.94;4360939;32;34654;-61
2023/12/05 06:36:04;;;;;;;6.28;3.95;;;;;;;23.39;34.46;99576.53;4360827;32;33616;-62
2023/12/05 06:38:31;;;;;;;7.55;3.83;;;;;;;23.37;32.98;99577.84;4360386;32;33825;-61
2023/12/05 06:40:59;;;;;;;6.37;3.50;;;;;;;23.33;33.11;99572.03;4360467;32;34102;-61
2023/12/05 06:43:26;;;;;;;7.43;3.40;;;;;;;23.33;33.80;99576.66;4360346;32;34585;-61
2023/12/05 06:45:54;;;;;;;13.32;3.70;;;;;;;23.32;33.99;99564.94;4361100;32;33339;-60
2023/12/05 06:48:22;;;;;;;7.97;3.37;;;;;;;23.33;34.06;99568.47;4362770;32;33991;-60
2023/12/05 06:50:49;;;;;;;7.68;3.70;;;;;;;23.32;34.13;99572.28;4361893;32;35100;-60
2023/12/05 06:53:17;;;;;;;4.93;3.17;;;;;;;23.31;34.19;99567.88;4362673;32;34593;-61
2023/12/05 06:55:47;;;;;;;6.43;4.07;;;;;;;23.31;34.31;99567.88;4349188;32;33336;-61
2023/12/05 06:58:14;;;;;;;6.80;3.17;;;;;;;23.31;34.41;99576.88;4362333;32;34726;-61
2023/12/05 07:00:42;;;;;;;5.85;3.47;;;;;;;23.32;34.48;99577.72;4362796;32;34004;-60
2023/12/05 07:03:12;;;;;;;7.47;3.25;;;;;;;23.30;34.51;99580.66;4362363;32;34194;-60
2023/12/05 07:05:39;;;;;;;7.25;3.45;;;;;;;23.30;34.60;99586.09;4362689;32;33736;-61
2023/12/05 07:08:08;;;;;;;7.68;3.53;;;;;;;23.30;34.62;99588.81;4362383;32;34343;-61
2023/12/05 07:10:35;;;;;;;9.70;3.45;;;;;;;23.31;34.68;99598.63;4362621;32;35031;-61
2023/12/05 07:13:03;;;;;;;9.40;3.10;;;;;;;23.31;34.71;99603.25;4362338;32;34515;-62
2023/12/05 07:15:30;;;;;;;7.45;3.30;;;;;;;23.30;34.73;99596.16;4362752;32;33290;-63
2023/12/05 07:17:58;;;;;;;6.57;3.40;;;;;;;23.29;34.76;99595.34;4362559;32;33644;-60
2023/12/05 07:20:26;;;;;;;7.18;3.42;;;;;;;23.29;34.74;99599.94;4362472;32;33929;-61
2023/12/05 07:22:53;;;;;;;5.68;3.05;;;;;;;23.29;34.81;99603.50;4362667;32;34071;-60
2023/12/05 07:25:21;;;;;;;9.07;3.58;;;;;;;23.31;34.84;99608.69;4362518;32;33279;-60
2023/12/05 07:27:48;;;;;;;6.60;3.22;;;;;;;23.30;34.86;99604.34;4361990;32;34696;-61
2023/12/05 07:30:16;;;;;;;7.15;3.35;;;;;;;23.30;34.87;99607.06;4362429;32;34020;-61
2023/12/05 07:32:44;;;;;;;7.65;3.28;;;;;;;23.28;34.89;99603.75;4362330;32;33711;-61
2023/12/05 07:35:12;;;;;;;5.40;3.17;;;;;;;23.29;34.89;99605.41;4362211;32;33497;-61
2023/12/05 07:37:39;;;;;;;6.00;3.05;;;;;;;23.28;34.96;99609.19;4362432;32;34119;-61
2023/12/05 07:40:08;;;;;;;15.98;9.43;;;;;;;23.27;34.95;99605.63;4362230;32;33841;-65
2023/12/05 07:42:35;;;;;;;18.17;12.43;;;;;;;23.22;30.90;99613.63;4362294;32;33324;-68
2023/12/05 07:45:05;;;;;;;19.08;10.38;;;;;;;23.06;29.13;99606.13;4362313;32;33568;-64
2023/12/05 07:47:32;;;;;;;12.95;8.27;;;;;;;23.01;30.46;99603.25;4362342;32;33595;-64
2023/12/05 07:50:00;;;;;;;12.07;7.93;;;;;;;23.02;31.32;99610.34;4362350;32;33610;-64
2023/12/05 07:52:27;;;;;;;13.00;7.37;;;;;;;23.04;31.73;99611.78;4362073;32;33854;-61
2023/12/05 07:54:56;;;;;;;12.23;7.10;;;;;;;23.06;31.78;99606.94;4362155;32;33737;-64
2023/12/05 07:57:24;;;;;;;12.40;7.15;;;;;;;23.12;31.78;99606.00;4361586;32;33975;-62
2023/12/05 07:59:51;;;;;;;12.00;6.65;;;;;;;23.21;31.80;99603.81;4362188;32;33822;-61
2023/12/05 08:02:20;;;;;;;11.32;6.00;;;;;;;23.32;31.68;99603.06;4362069;32;34777;-61
2023/12/05 08:04:48;;;;;;;10.82;5.95;;;;;;;23.41;31.61;99600.84;4348836;32;33633;-64
2023/12/05 08:07:17;;;;;;;10.93;5.75;;;;;;;23.52;31.53;99599.22;4362186;32;34013;-63
2023/12/05 08:09:44;;;;;;;10.23;5.40;;;;;;;23.60;31.50;99599.72;4361922;32;33921;-63
2023/12/05 08:12:12;;;;;;;11.68;5.75;;;;;;;23.67;31.42;99594.19;4336657;32;33650;-61
2023/12/05 08:14:39;;;;;;;11.20;5.28;;;;;;;23.73;31.37;99587.78;4359717;32;33122;-65
2023/12/05 08:17:07;;;;;;;9.43;4.97;;;;;;;23.84;31.31;99588.91;4371826;32;34283;-65
2023/12/05 08:19:35;;;;;;;11.68;5.37;;;;;;;23.92;31.28;99592.13;4376207;32;33664;-64
2023/12/05 08:22:02;;;;;;;8.18;5.30;;;;;;;24.00;31.24;99588.19;4361928;32;34409;-61
2023/12/05 08:24:30;;;;;;;8.18;4.70;;;;;;;24.12;31.20;99599.13;4359891;32;33422;-64
2023/12/05 08:26:58;;;;;;;11.05;6.50;;;;;;;24.20;31.14;99587.84;4359688;32;33979;-61
2023/12/05 08:29:26;;;;;;;7.80;5.80;;;;;;;24.28;30.75;99594.84;4361077;32;34731;-63
2023/12/05 08:31:53;;;;;;;8.90;5.75;;;;;;;24.36;30.44;99589.06;4368525;32;33670;-61
2023/12/05 08:34:21;;;;;;;11.57;5.87;;;;;;;24.44;30.38;99599.66;4361662;32;33318;-61
2023/12/05 08:36:48;;;;;;;12.50;5.53;;;;;;;24.52;30.39;99603.88;4361536;32;34940;-62
2023/12/05 08:39:16;;;;;;;10.27;5.30;;;;;;;24.59;30.41;99607.34;4361940;32;34805;-62
2023/12/05 08:41:44;;;;;;;8.75;5.22;;;;;;;24.65;30.40;99604.47;4361281;32;34002;-63
2023/12/05 08:44:11;;;;;;;12.65;5.68;;;;;;;24.72;30.46;99603.53;4371316;32;33806;-64
2023/12/05 08:46:39;;;;;;;11.70;5.43;;;;;;;24.78;30.46;99597.09;4376204;32;32392;-63
2023/12/05 08:49:07;;;;;;;7.62;5.05;;;;;;;24.84;30.40;99593.41;4376337;32;33824;-61
2023/12/05 08:51:35;;;;;;;10.07;5.12;;;;;;;24.90;30.41;99597.87;4360369;32;34561;-64
2023/12/05 08:54:02;;;;;;;8.40;5.70;;;;;;;24.96;30.41;99586.03;4361629;32;33585;-64
2023/12/05 08:56:30;;;;;;;9.65;5.47;;;;;;;25.01;30.45;99591.59;4362004;32;34700;-63
2023/12/05 08:58:57;;;;;;;11.12;5.45;;;;;;;25.09;30.41;99588.50;4361555;32;34135;-61
2023/12/05 09:01:25;;;;;;;9.98;4.80;;;;;;;25.16;30.42;99596.56;4361139;32;34674;-64
2023/12/05 09:03:54;;;;;;;9.10;5.35;;;;;;;25.21;30.38;99601.28;4360906;32;33541;-64
2023/12/05 09:06:21;;;;;;;10.63;5.00;;;;;;;25.27;30.39;99594.84;4361019;32;34086;-64
2023/12/05 09:08:49;;;;;;;10.48;5.00;;;;;;;25.33;30.37;99602.09;4360261;32;34793;-66
2023/12/05 09:11:17;;;;;;;10.60;4.97;;;;;;;25.38;30.34;99596.72;4361407;32;34679;-64
2023/12/05 09:13:45;;;;;;;8.32;5.50;;;;;;;25.42;30.33;99606.06;4360343;32;33176;-63
2023/12/05 09:16:12;;;;;;;9.50;4.87;;;;;;;25.50;30.24;99605.66;4359167;32;34034;-66
2023/12/05 09:18:40;;;;;;;8.95;5.15;;;;;;;25.55;30.24;99594.00;4360168;32;35027;-62
2023/12/05 09:21:09;;;;;;;8.80;5.15;;;;;;;25.59;30.22;99601.47;4367099;32;34818;-61
2023/12/05 09:23:37;;;;;;;8.95;4.85;;;;;;;25.66;30.21;99599.41;4376245;32;33257;-61
2023/12/05 09:26:05;;;;;;;10.23;5.07;;;;;;;25.73;30.20;99595.69;4364702;32;34056;-62
2023/12/05 09:28:34;;;;;;;10.13;4.53;;;;;;;25.78;30.17;99595.81;4359905;32;34674;-62
2023/12/05 09:31:01;;;;;;;9.23;5.00;;;;;;;25.82;30.13;99597.78;4361239;32;33913;-62
2023/12/05 09:33:29;;;;;;;13.25;4.82;;;;;;;25.88;30.11;99591.34;4358720;32;33265;-62
2023/12/05 09:35:59;;;;;;;8.75;4.28;;;;;;;25.93;30.08;99585.16;4370976;32;35483;-62
2023/12/05 09:38:27;;;;;;;8.00;4.97;;;;;;;25.99;30.04;99586.06;4376004;32;33837;-64
2023/12/05 09:40:54;;;;;;;9.00;5.00;;;;;;;26.02;30.00;99580.06;4359716;32;34100;-64
2023/12/05 09:43:25;;;;;;;8.68;4.87;;;;;;;26.03;30.04;99582.56;4359115;32;33391;-60
2023/12/05 09:45:58;;;;;;;7.78;4.90;;;;;;;26.07;30.06;99566.50;4359246;32;34663;-62
2023/12/05 09:48:27;;;;;;;8.18;4.85;;;;;;;26.09;30.04;99572.53;4360516;32;34834;-60
2023/12/05 09:50:56;;;;;;;13.43;5.00;;;;;;;26.10;30.00;99560.53;4356936;32;32388;-65
2023/12/05 09:53:23;;;;;;;7.75;4.53;;;;;;;26.12;29.93;99564.66;4331156;33;33111;-65
2023/12/05 09:55:51;;;;;;;8.63;5.22;;;;;;;26.14;29.92;99561.69;4346719;32;34038;-61
2023/12/05 09:58:18;;;;;;;9.55;5.68;;;;;;;26.12;29.96;99552.91;4357425;32;34624;-61
2023/12/05 10:00:46;;;;;;;9.23;5.00;;;;;;;26.09;29.97;99556.12;4334125;32;34035;-63
2023/12/05 10:03:15;;;;;;;7.45;4.43;;;;;;;26.06;30.06;99549.25;4359492;32;34332;-63
2023/12/05 10:05:43;;;;;;;9.32;4.90;;;;;;;26.04;30.08;99545.13;4360359;32;34461;-63
2023/12/05 10:08:10;;;;;;;8.80;5.35;;;;;;;26.00;30.12;99542.06;4343543;33;34895;-61
2023/12/05 10:10:39;;;;;;;11.00;5.37;;;;;;;25.98;30.12;99527.81;4331660;33;33668;-64
2023/12/05 10:13:07;;;;;;;9.00;4.72;;;;;;;25.94;30.14;99526.66;4345108;33;33221;-60
2023/12/05 10:15:34;;;;;;;8.40;4.97;;;;;;;25.90;30.15;99518.13;4343423;33;34602;-61
2023/12/05 10:18:02;;;;;;;10.73;5.25;;;;;;;25.88;30.10;99519.44;4345818;33;34125;-64
2023/12/05 10:20:30;;;;;;;7.70;4.40;;;;;;;25.84;30.14;99512.84;4352269;32;35116;-63
2023/12/05 10:22:58;;;;;;;12.23;5.70;;;;;;;25.80;30.16;99512.50;4354966;32;33396;-65
2023/12/05 10:25:25;;;;;;;6.87;4.68;;;;;;;25.77;30.20;99510.25;4347209;32;34093;-60
2023/12/05 10:28:01;;;;;;;7.12;4.10;;;;;;;25.74;30.28;99507.16;4346582;33;33156;-64
2023/12/05 10:30:37;;;;;;;8.30;5.03;;;;;;;25.69;30.34;99500.56;4347734;33;34037;-62
2023/12/05 10:33:11;;;;;;;8.23;4.95;;;;;;;25.66;30.39;99505.69;4338017;33;33584;-62
2023/12/05 10:35:41;;;;;;;7.80;4.50;;;;;;;25.62;30.47;99497.16;4336802;33;34721;-63
2023/12/05 10:38:14;;;;;;;7.65;4.97;;;;;;;25.58;30.41;99492.44;4344693;33;33739;-61
2023/12/05 10:40:57;;;;;;;6.68;4.53;;;;;;;25.57;30.37;99494.34;4347060;33;33933;-61
2023/12/05 10:43:25;;;;;;;6.57;4.15;;;;;;;25.57;30.39;99494.34;4346304;33;33416;-66
2023/12/05 10:45:57;;;;;;;6.90;4.45;;;;;;;25.52;30.50;99499.72;4346849;33;34001;-61
2023/12/05 10:48:25;;;;;;;7.78;4.90;;;;;;;25.46;30.63;99500.72;4334190;33;33918;-62
2023/12/05 10:50:54;;;;;;;10.63;5.00;;;;;;;25.48;30.56;99492.28;4345992;33;34727;-62
2023/12/05 10:53:22;;;;;;;6.97;4.70;;;;;;;25.46;30.67;99481.59;4336540;33;33616;-61
2023/12/05 10:55:49;;;;;;;12.15;5.15;;;;;;;25.43;30.74;99471.97;4346878;33;34132;-61
2023/12/05 10:58:17;;;;;;;8.23;4.60;;;;;;;25.42;30.82;99474.97;4345028;32;33931;-62
2023/12/05 11:00:45;;;;;;;7.40;4.18;;;;;;;25.40;31.03;99463.44;4347506;33;33775;-62
2023/12/05 11:03:14;;;;;;;11.57;4.90;;;;;;;25.38;31.06;99482.81;4332238;33;32911;-61
2023/12/05 11:05:41;;;;;;;7.55;4.57;;;;;;;25.36;31.17;99478.66;4347398;33;34815;-61
2023/12/05 11:08:09;;;;;;;8.45;5.22;;;;;;;25.31;31.32;99484.88;4350041;32;34054;-61
2023/12/05 11:10:38;;;;;;;9.75;4.78;;;;;;;25.27;31.37;99489.16;4373999;32;34111;-60
2023/12/05 11:13:06;;;;;;;9.48;4.78;;;;;;;25.26;31.41;99494.88;4366188;32;33325;-61
2023/12/05 11:15:37;;;;;;;5.82;4.18;;;;;;;25.17;31.59;99492.53;4372805;32;34093;-60
2023/12/05 11:18:18;;;;;;;8.00;4.25;;;;;;;25.13;31.69;99487.81;4348893;32;34054;-61
2023/12/05 11:21:15;;;;;;;7.97;4.62;;;;;;;25.12;31.75;99494.34;4345951;32;34389;-63
2023/12/05 11:24:04;;;;;;;8.23;4.47;;;;;;;25.07;31.85;99492.38;4366855;32;32569;-63
2023/12/05 11:26:57;;;;;;;9.15;4.85;;;;;;;25.03;31.90;99487.59;4355318;32;33985;-63
2023/12/05 11:29:58;;;;;;;12.13;4.87;;;;;;;24.99;32.08;99486.44;4358535;32;33963;-62
2023/12/05 11:32:37;;;;;;;12.40;4.78;;;;;;;24.97;32.08;99483.13;4358228;32;33777;-62
2023/12/05 11:35:17;;;;;;;12.90;4.72;;;;;;;24.91;32.09;99487.69;4348972;32;33293;-62
2023/12/05 11:38:08;;;;;;;10.90;5.28;;;;;;;24.88;32.27;99485.41;4360129;32;34805;-62